Forside
METAR-TAF:

METAR-TAF

Lufthavne :

Chōfu, Japan

Breddekreds: 35-40N, længdekreds: 139-32E, højde: 41 m

Aktuelle vejr

Denne rapport blev lavet for 2 timer og 0 minutter siden, kl. 07:00 UTC
Vind 17 kt fra nord
Temperatur 9°C
Fugtighed 29%
Tryk 1017 hPa
Sigt 10 km eller mere
Nogle få skyer i en højde af 4000 ft

METAR: RJTF 270700Z 35017KT 9999 FEW040 09/M08 Q1017

Tid: 18:00 (09:00 UTC)


TAF: fraværende

Vejrobservationer og prognoser fra mere end 4000 lufthavne (METAR og TAF).

De gule og røde prikker repræsenterer de meteorologiske stationer.

Flyt musen over at se navnet på stationen.

Så klik over at se vejr observationer og prognoser.

At skifte det kort: Klik på de grønne knapper med et sort kors for at zoome ind; på den grønne knap med en bindestreg for at zoome ud; eller på de grønne pile for tilstødende kort.


METAR-TAF: